createdAt,value
2022-08-14T00:00:14.136Z,63.10
2022-08-14T00:02:42.425Z,63.60
2022-08-14T00:05:15.099Z,64.00
2022-08-14T00:07:42.280Z,64.10
2022-08-14T00:10:49.977Z,64.30
2022-08-14T00:12:59.040Z,64.10
2022-08-14T00:15:43.393Z,64.00
2022-08-14T00:18:14.825Z,64.20
2022-08-14T00:21:01.766Z,64.30
2022-08-14T00:23:30.350Z,64.30
2022-08-14T00:26:05.597Z,64.10
2022-08-14T00:28:37.065Z,64.40
2022-08-14T00:31:09.761Z,64.20
2022-08-14T00:33:50.787Z,64.30
2022-08-14T00:36:37.179Z,64.40
2022-08-14T00:39:17.933Z,64.50
2022-08-14T00:41:46.408Z,65.00
2022-08-14T00:44:14.571Z,64.90
2022-08-14T00:46:49.426Z,65.10
2022-08-14T00:49:17.838Z,65.10
2022-08-14T00:51:48.321Z,65.10
2022-08-14T00:54:21.273Z,65.00
2022-08-14T00:56:54.896Z,65.10
2022-08-14T00:59:27.475Z,65.20
2022-08-14T01:01:58.866Z,64.70
2022-08-14T01:04:38.257Z,64.20
2022-08-14T01:07:21.065Z,64.00
2022-08-14T01:09:58.872Z,64.00
2022-08-14T01:12:30.102Z,64.70
2022-08-14T01:14:58.973Z,64.60
2022-08-14T01:17:49.627Z,64.40
2022-08-14T01:20:39.278Z,64.80
2022-08-14T01:23:16.133Z,64.80
2022-08-14T01:25:48.010Z,64.20
2022-08-14T01:28:46.383Z,64.40
2022-08-14T01:31:14.280Z,64.20
2022-08-14T01:33:59.954Z,64.40
2022-08-14T01:36:36.873Z,64.20
2022-08-14T01:39:12.886Z,65.10
2022-08-14T01:41:51.670Z,64.80
2022-08-14T01:44:31.395Z,64.50
2022-08-14T01:47:16.573Z,64.80
2022-08-14T01:50:01.465Z,64.50
2022-08-14T01:52:59.367Z,64.90
2022-08-14T01:55:30.456Z,64.40
2022-08-14T01:58:18.589Z,64.70
2022-08-14T02:00:47.961Z,65.40
2022-08-14T02:03:16.213Z,65.00
2022-08-14T02:05:43.439Z,64.70
2022-08-14T02:08:10.661Z,64.60
2022-08-14T02:10:47.650Z,64.50
2022-08-14T02:13:17.357Z,65.00
2022-08-14T02:15:45.383Z,65.00
2022-08-14T02:18:18.264Z,64.60
2022-08-14T02:20:45.962Z,64.60
2022-08-14T02:23:14.365Z,64.40
2022-08-14T02:25:41.414Z,64.60
2022-08-14T02:28:22.754Z,64.60
2022-08-14T02:30:55.397Z,64.60
2022-08-14T02:33:23.294Z,65.30
2022-08-14T02:35:53.422Z,65.10
2022-08-14T02:38:30.413Z,65.00
2022-08-14T02:41:01.369Z,64.90
2022-08-14T02:43:37.363Z,64.50
2022-08-14T02:46:20.411Z,64.70
2022-08-14T02:49:01.933Z,64.40
2022-08-14T02:51:36.844Z,64.60
2022-08-14T02:54:05.605Z,64.70
2022-08-14T02:57:39.184Z,64.70
2022-08-14T02:59:23.749Z,64.70
2022-08-14T03:01:54.710Z,64.60
2022-08-14T03:04:22.392Z,64.40
2022-08-14T03:06:57.551Z,64.90
2022-08-14T03:09:42.048Z,64.70
2022-08-14T03:12:30.852Z,64.40
2022-08-14T03:14:59.116Z,64.50
2022-08-14T03:17:26.977Z,64.90
2022-08-14T03:19:58.918Z,65.10
2022-08-14T03:22:29.876Z,64.90
2022-08-14T03:24:57.009Z,65.10
2022-08-14T03:27:26.416Z,65.00
2022-08-14T03:30:05.494Z,65.10
2022-08-14T03:32:35.393Z,65.60
2022-08-14T03:35:09.348Z,65.30
2022-08-14T03:39:09.767Z,64.90
2022-08-14T03:40:25.649Z,64.90
2022-08-14T03:42:52.734Z,65.90
2022-08-14T03:45:34.177Z,65.80
2022-08-14T03:48:30.347Z,65.10
2022-08-14T03:51:02.124Z,65.40
2022-08-14T03:53:31.270Z,65.60
2022-08-14T03:56:00.914Z,65.60
2022-08-14T03:58:36.477Z,65.50
2022-08-14T04:01:06.534Z,65.50
2022-08-14T04:03:34.464Z,65.60
2022-08-14T04:06:05.302Z,65.70
2022-08-14T04:08:37.552Z,65.50
2022-08-14T04:11:08.088Z,65.40
2022-08-14T04:13:42.435Z,65.30
2022-08-14T04:16:17.679Z,65.30
2022-08-14T04:18:47.113Z,66.00
2022-08-14T04:21:16.165Z,66.40
2022-08-14T04:23:43.985Z,66.10
2022-08-14T04:26:14.901Z,65.60
2022-08-14T04:29:07.769Z,65.70
2022-08-14T04:32:58.455Z,65.90
2022-08-14T04:34:29.534Z,65.70
2022-08-14T04:37:21.937Z,66.10
2022-08-14T04:40:08.774Z,65.90
2022-08-14T04:42:55.012Z,66.20
2022-08-14T04:45:25.981Z,65.90
2022-08-14T04:48:43.206Z,66.20
2022-08-14T04:51:05.318Z,66.70
2022-08-14T04:53:35.666Z,66.10
2022-08-14T04:56:05.781Z,65.90
2022-08-14T04:58:40.520Z,66.30
2022-08-14T05:01:12.893Z,67.30
2022-08-14T05:03:46.569Z,67.10
2022-08-14T05:06:37.154Z,67.50
2022-08-14T05:09:00.983Z,67.20
2022-08-14T05:11:28.585Z,66.70
2022-08-14T05:14:42.124Z,67.20
2022-08-14T05:16:47.283Z,68.00
2022-08-14T05:19:17.738Z,68.30
2022-08-14T05:22:01.054Z,68.40
2022-08-14T05:24:42.186Z,68.00
2022-08-14T05:27:10.657Z,67.50
2022-08-14T05:29:37.668Z,67.30
2022-08-14T05:32:10.351Z,68.20
2022-08-14T05:34:37.223Z,68.30
2022-08-14T05:37:04.202Z,68.70
2022-08-14T05:39:34.179Z,68.80
2022-08-14T05:42:01.316Z,68.30
2022-08-14T05:44:37.111Z,67.70
2022-08-14T05:47:04.458Z,67.90
2022-08-14T05:49:33.837Z,67.70
2022-08-14T05:52:04.515Z,67.40
2022-08-14T05:54:36.993Z,67.00
2022-08-14T05:57:06.901Z,66.90
2022-08-14T05:59:38.926Z,66.70
2022-08-14T06:02:07.855Z,66.70
2022-08-14T06:04:38.877Z,66.50
2022-08-14T06:07:06.563Z,66.10
2022-08-14T06:09:36.052Z,66.20
2022-08-14T06:12:10.572Z,66.80
2022-08-14T06:14:39.485Z,65.90
2022-08-14T06:17:06.713Z,66.10
2022-08-14T06:19:33.596Z,65.40
2022-08-14T06:22:00.504Z,65.60
2022-08-14T06:24:30.542Z,65.50
2022-08-14T06:27:04.546Z,66.10
2022-08-14T06:29:34.815Z,65.40
2022-08-14T06:32:36.840Z,65.00
2022-08-14T06:35:09.492Z,64.30
2022-08-14T06:37:43.773Z,64.20
2022-08-14T06:40:16.788Z,64.40
2022-08-14T06:43:00.501Z,64.30
2022-08-14T06:45:31.942Z,65.10
2022-08-14T06:47:59.224Z,64.90
2022-08-14T06:50:31.680Z,65.00
2022-08-14T06:53:01.263Z,64.70
2022-08-14T06:55:29.457Z,64.00
2022-08-14T06:57:57.814Z,64.40
2022-08-14T07:00:30.554Z,64.70
2022-08-14T07:03:17.527Z,64.30
2022-08-14T07:05:55.767Z,64.00
2022-08-14T07:08:31.121Z,64.20
2022-08-14T07:11:00.212Z,64.00
2022-08-14T07:13:28.489Z,64.00
2022-08-14T07:15:59.024Z,63.50
2022-08-14T07:18:30.821Z,63.80
2022-08-14T07:21:00.442Z,63.30
2022-08-14T07:23:28.057Z,62.60
2022-08-14T07:26:00.018Z,62.10
2022-08-14T07:28:43.628Z,61.90
2022-08-14T07:31:13.250Z,61.70
2022-08-14T07:33:50.158Z,61.90
2022-08-14T07:36:26.922Z,61.60
2022-08-14T07:38:56.677Z,61.20
2022-08-14T07:41:24.678Z,61.00
2022-08-14T07:44:00.891Z,60.40
2022-08-14T07:46:45.215Z,59.80
2022-08-14T07:49:11.989Z,59.60
2022-08-14T07:51:45.923Z,59.40
2022-08-14T07:54:23.224Z,59.50
2022-08-14T07:56:59.695Z,59.40
2022-08-14T07:59:41.574Z,59.40
2022-08-14T08:02:17.108Z,58.70
2022-08-14T08:04:49.587Z,58.20
2022-08-14T08:07:17.064Z,58.30
2022-08-14T08:09:57.165Z,57.80
2022-08-14T08:12:29.637Z,57.90
2022-08-14T08:15:02.493Z,57.30
2022-08-14T08:17:34.805Z,57.30
2022-08-14T08:20:06.948Z,57.30
2022-08-14T08:22:37.938Z,57.10
2022-08-14T08:25:13.937Z,57.00
2022-08-14T08:28:08.889Z,57.00
2022-08-14T08:30:56.206Z,56.60
2022-08-14T08:33:32.175Z,56.40
2022-08-14T08:36:12.811Z,56.70
2022-08-14T08:39:18.665Z,56.90
2022-08-14T08:41:44.062Z,56.70
2022-08-14T08:44:17.363Z,56.50
2022-08-14T08:47:03.526Z,56.70
2022-08-14T08:49:52.583Z,56.90
2022-08-14T08:52:32.602Z,57.10
2022-08-14T08:55:04.648Z,57.70
2022-08-14T08:57:37.680Z,57.00
2022-08-14T09:00:25.231Z,57.30
2022-08-14T09:03:06.762Z,57.20
2022-08-14T09:05:39.319Z,57.20
2022-08-14T09:08:31.001Z,57.20
2022-08-14T09:11:19.965Z,57.00
2022-08-14T09:13:52.667Z,56.90
2022-08-14T09:16:39.409Z,56.90
2022-08-14T09:19:07.666Z,56.80
2022-08-14T09:21:39.613Z,56.80
2022-08-14T09:24:29.070Z,56.70
2022-08-14T09:26:59.881Z,56.60
2022-08-14T09:29:28.932Z,56.70
2022-08-14T09:32:02.101Z,56.90
2022-08-14T09:34:59.054Z,56.90
2022-08-14T09:37:56.368Z,57.00
2022-08-14T09:41:09.911Z,57.00
2022-08-14T09:43:46.577Z,57.00
2022-08-14T09:46:17.143Z,56.80
2022-08-14T09:49:16.538Z,56.80
2022-08-14T09:51:58.326Z,57.10
2022-08-14T09:54:37.956Z,57.10
2022-08-14T09:57:06.890Z,57.10
2022-08-14T09:59:47.587Z,57.00
2022-08-14T10:02:28.521Z,56.70
2022-08-14T10:05:11.103Z,56.60
2022-08-14T10:07:53.504Z,56.70
2022-08-14T10:10:36.197Z,56.80
2022-08-14T10:13:09.435Z,56.70
2022-08-14T10:15:50.440Z,56.60
2022-08-14T10:18:21.498Z,56.70
2022-08-14T10:21:09.544Z,56.50
2022-08-14T10:24:09.447Z,56.60
2022-08-14T10:26:38.694Z,56.80
2022-08-14T10:29:18.136Z,56.80
2022-08-14T10:31:59.736Z,56.90
2022-08-14T10:34:35.617Z,57.00
2022-08-14T10:37:14.804Z,57.00
2022-08-14T10:40:02.034Z,56.90
2022-08-14T10:42:39.528Z,57.10
2022-08-14T10:45:24.318Z,57.00
2022-08-14T10:48:09.429Z,57.20
2022-08-14T10:50:46.705Z,57.20
2022-08-14T10:53:15.314Z,57.10
2022-08-14T10:55:48.661Z,57.00
2022-08-14T10:58:29.799Z,56.90
2022-08-14T11:01:08.083Z,56.90
2022-08-14T11:03:55.951Z,57.10
2022-08-14T11:06:24.668Z,57.20
2022-08-14T11:08:52.891Z,57.40
2022-08-14T11:11:22.841Z,57.50
2022-08-14T11:13:51.181Z,57.40
2022-08-14T11:16:18.414Z,57.50
2022-08-14T11:18:50.631Z,57.50
2022-08-14T11:21:23.168Z,57.40
2022-08-14T11:23:53.583Z,57.40
2022-08-14T11:26:30.006Z,57.20
2022-08-14T11:29:00.220Z,57.30
2022-08-14T11:31:38.728Z,57.10
2022-08-14T11:34:29.645Z,57.10
2022-08-14T11:37:04.384Z,56.90
2022-08-14T11:39:41.666Z,56.80
2022-08-14T11:42:57.191Z,56.60
2022-08-14T11:45:11.116Z,56.50
2022-08-14T11:48:13.335Z,56.40
2022-08-14T11:50:37.653Z,56.30
2022-08-14T11:53:07.711Z,56.20
2022-08-14T11:55:38.125Z,56.30
2022-08-14T11:58:11.172Z,55.90
2022-08-14T12:00:49.348Z,56.20
2022-08-14T12:03:19.835Z,56.10
2022-08-14T12:06:05.657Z,56.10
2022-08-14T12:08:38.770Z,56.00
2022-08-14T12:11:09.882Z,55.90
2022-08-14T12:13:37.750Z,55.90
2022-08-14T12:16:20.664Z,56.00
2022-08-14T12:18:51.140Z,55.90
2022-08-14T12:21:25.612Z,56.00
2022-08-14T12:24:36.110Z,56.10
2022-08-14T12:26:57.798Z,56.10
2022-08-14T12:29:26.991Z,56.00
2022-08-14T12:32:04.604Z,55.80
2022-08-14T12:34:34.658Z,55.70
2022-08-14T12:37:05.683Z,55.60
2022-08-14T12:39:39.962Z,55.40
2022-08-14T12:42:08.093Z,55.50
2022-08-14T12:44:38.201Z,56.00
2022-08-14T12:47:17.536Z,55.40
2022-08-14T12:49:53.344Z,55.30
2022-08-14T12:52:35.948Z,55.60
2022-08-14T12:55:16.744Z,55.60
2022-08-14T12:57:49.427Z,55.60
2022-08-14T13:00:23.925Z,55.40
2022-08-14T13:02:58.610Z,55.00
2022-08-14T13:05:32.204Z,54.50
2022-08-14T13:08:03.649Z,54.90
2022-08-14T13:10:51.941Z,54.80
2022-08-14T13:13:21.522Z,55.00
2022-08-14T13:15:57.390Z,55.00
2022-08-14T13:18:26.409Z,54.90
2022-08-14T13:20:59.753Z,54.80
2022-08-14T13:23:33.747Z,54.40
2022-08-14T13:26:04.011Z,54.40
2022-08-14T13:28:39.856Z,54.30
2022-08-14T13:31:30.113Z,54.20
2022-08-14T13:33:58.160Z,54.00
2022-08-14T13:36:54.125Z,54.00
2022-08-14T13:39:21.539Z,54.00
2022-08-14T13:41:55.638Z,54.00
2022-08-14T13:44:27.052Z,54.10
2022-08-14T13:46:53.838Z,54.20
2022-08-14T13:49:21.199Z,54.40
2022-08-14T13:51:53.365Z,54.40
2022-08-14T13:54:21.244Z,54.20
2022-08-14T13:56:49.519Z,54.10
2022-08-14T13:59:20.425Z,54.40
2022-08-14T14:02:07.293Z,54.20
2022-08-14T14:04:40.238Z,53.90
2022-08-14T14:07:14.511Z,53.60
2022-08-14T14:09:52.798Z,53.70
2022-08-14T14:12:38.489Z,53.10
2022-08-14T14:15:14.457Z,52.90
2022-08-14T14:17:49.105Z,53.40
2022-08-14T14:20:35.702Z,52.90
2022-08-14T14:23:10.502Z,52.80
2022-08-14T14:25:51.184Z,52.50
2022-08-14T14:28:31.684Z,52.90
2022-08-14T14:31:07.025Z,53.50
2022-08-14T14:33:46.776Z,53.20
2022-08-14T14:36:27.882Z,53.00
2022-08-14T14:39:01.899Z,52.90
2022-08-14T14:41:38.532Z,53.10
2022-08-14T14:44:13.354Z,53.30
2022-08-14T14:46:43.486Z,53.60
2022-08-14T14:49:18.154Z,53.40
2022-08-14T14:51:52.719Z,53.20
2022-08-14T14:54:31.609Z,53.40
2022-08-14T14:57:03.473Z,53.30
2022-08-14T14:59:33.553Z,53.70
2022-08-14T15:02:09.128Z,53.70
2022-08-14T15:04:38.244Z,52.80
2022-08-14T15:07:06.599Z,53.20
2022-08-14T15:09:38.186Z,54.00
2022-08-14T15:12:34.594Z,54.10
2022-08-14T15:14:57.891Z,54.30
2022-08-14T15:17:41.384Z,54.40
2022-08-14T15:20:17.294Z,53.80
2022-08-14T15:22:57.558Z,54.60
2022-08-14T15:25:25.053Z,54.60
2022-08-14T15:30:34.122Z,54.40
2022-08-14T15:33:01.388Z,54.90
2022-08-14T15:35:29.777Z,54.70
2022-08-14T15:38:09.061Z,54.90
2022-08-14T15:40:42.205Z,54.80
2022-08-14T15:43:13.048Z,54.40
2022-08-14T15:45:41.297Z,54.40
2022-08-14T15:48:15.770Z,54.30
2022-08-14T15:50:50.746Z,54.30
2022-08-14T15:53:18.477Z,54.00
2022-08-14T15:55:54.358Z,53.90
2022-08-14T15:58:22.545Z,54.60
2022-08-14T16:01:09.921Z,54.40
2022-08-14T16:03:42.515Z,54.50
2022-08-14T16:06:18.822Z,54.10
2022-08-14T16:08:50.481Z,54.40
2022-08-14T16:11:27.231Z,54.40
2022-08-14T16:13:57.527Z,55.00
2022-08-14T16:16:48.121Z,54.80
2022-08-14T16:19:23.522Z,55.00
2022-08-14T16:25:18.216Z,55.00
2022-08-14T16:27:48.176Z,55.40
2022-08-14T16:30:20.334Z,55.50
2022-08-14T16:32:56.466Z,55.30
2022-08-14T16:35:43.304Z,55.10
2022-08-14T16:38:45.648Z,54.80
2022-08-14T16:40:24.058Z,55.00
2022-08-14T16:41:23.040Z,54.80
2022-08-14T16:43:54.201Z,55.10
2022-08-14T16:46:26.522Z,55.40
2022-08-14T16:48:57.628Z,55.60
2022-08-14T16:51:28.126Z,55.60
2022-08-14T16:53:58.028Z,55.70
2022-08-14T16:56:30.784Z,55.80
2022-08-14T16:59:09.489Z,55.80
2022-08-14T17:01:42.075Z,55.70
2022-08-14T17:04:24.395Z,55.80
2022-08-14T17:06:56.249Z,55.70
2022-08-14T17:09:32.014Z,55.80
2022-08-14T17:12:10.286Z,55.60
2022-08-14T17:15:01.748Z,55.30
2022-08-14T17:17:40.847Z,55.00
2022-08-14T17:20:53.267Z,54.90
2022-08-14T17:22:59.044Z,55.10
2022-08-14T17:25:30.079Z,55.50
2022-08-14T17:28:51.256Z,55.50
2022-08-14T17:30:59.034Z,56.60
2022-08-14T17:33:40.598Z,57.10
2022-08-14T17:36:22.454Z,58.20
2022-08-14T17:39:17.168Z,57.90
2022-08-14T17:42:01.997Z,58.30
2022-08-14T17:44:45.393Z,58.20
2022-08-14T17:47:14.861Z,58.40
2022-08-14T17:49:51.912Z,58.60
2022-08-14T17:52:36.421Z,58.90
2022-08-14T17:56:01.838Z,59.60
2022-08-14T17:58:01.350Z,60.00
2022-08-14T18:00:50.284Z,59.90
2022-08-14T18:03:50.814Z,60.00
2022-08-14T18:06:38.625Z,60.10
2022-08-14T18:08:59.072Z,60.20
2022-08-14T18:11:45.930Z,60.80
2022-08-14T18:14:31.472Z,60.70
2022-08-14T18:17:02.308Z,60.80
2022-08-14T18:19:34.420Z,60.70
2022-08-14T18:22:23.972Z,61.10
2022-08-14T18:24:52.800Z,61.40
2022-08-14T18:27:23.956Z,61.50
2022-08-14T18:29:55.330Z,61.80
2022-08-14T18:32:31.752Z,61.90
2022-08-14T18:34:59.738Z,61.80
2022-08-14T18:37:27.242Z,62.00
2022-08-14T18:40:05.185Z,62.30
2022-08-14T18:42:36.074Z,62.40
2022-08-14T18:45:12.562Z,62.10
2022-08-14T18:50:31.274Z,62.50
2022-08-14T18:53:10.692Z,63.40
2022-08-14T18:55:52.695Z,63.20
2022-08-14T18:58:29.597Z,63.00
2022-08-14T19:01:04.529Z,63.10
2022-08-14T19:03:37.077Z,63.10
2022-08-14T19:06:05.278Z,63.30
2022-08-14T19:08:39.949Z,63.50
2022-08-14T19:11:32.138Z,63.50
2022-08-14T19:14:00.429Z,64.10
2022-08-14T19:16:35.484Z,64.10
2022-08-14T19:19:06.783Z,64.10
2022-08-14T19:21:38.356Z,63.50
2022-08-14T19:24:30.052Z,63.70
2022-08-14T19:27:19.669Z,64.00
2022-08-14T19:30:26.036Z,63.40
2022-08-14T19:33:02.613Z,63.90
2022-08-14T19:35:49.169Z,63.50
2022-08-14T19:38:47.835Z,63.50
2022-08-14T19:41:16.189Z,63.70
2022-08-14T19:43:55.705Z,63.90
2022-08-14T19:46:38.993Z,64.00
2022-08-14T19:50:08.696Z,64.10
2022-08-14T19:52:29.854Z,63.40
2022-08-14T19:54:58.075Z,63.50
2022-08-14T19:57:30.282Z,63.70
2022-08-14T20:00:28.915Z,63.60
2022-08-14T20:03:10.099Z,63.60
2022-08-14T20:05:45.792Z,63.50
2022-08-14T20:11:01.259Z,63.90
2022-08-14T20:11:19.130Z,63.90
2022-08-14T20:14:20.440Z,64.20
2022-08-14T20:16:55.940Z,64.20
2022-08-14T20:19:28.636Z,64.20
2022-08-14T20:22:35.900Z,64.50
2022-08-14T20:24:47.189Z,64.20
2022-08-14T20:27:24.804Z,64.10
2022-08-14T20:30:34.715Z,64.40
2022-08-14T20:33:07.350Z,64.60
2022-08-14T20:35:36.574Z,64.50
2022-08-14T20:38:31.599Z,64.60
2022-08-14T20:40:57.964Z,64.60
2022-08-14T20:43:46.098Z,64.50
2022-08-14T20:46:16.377Z,65.10
2022-08-14T20:49:12.052Z,65.20
2022-08-14T20:51:54.721Z,64.90
2022-08-14T20:54:34.409Z,65.00
2022-08-14T20:57:07.962Z,65.20
2022-08-14T20:59:53.430Z,65.60
2022-08-14T21:02:38.429Z,65.70
2022-08-14T21:05:19.657Z,65.80
2022-08-14T21:07:50.723Z,65.40
2022-08-14T21:10:36.481Z,65.40
2022-08-14T21:14:09.359Z,65.40
2022-08-14T21:16:34.198Z,65.00
2022-08-14T21:18:58.802Z,65.30
2022-08-14T21:21:41.547Z,65.60
2022-08-14T21:24:39.795Z,65.40
2022-08-14T21:27:02.044Z,65.30
2022-08-14T21:29:31.905Z,64.60
2022-08-14T21:31:58.884Z,64.60
2022-08-14T21:34:32.349Z,64.70
2022-08-14T21:37:12.631Z,64.60
2022-08-14T21:39:40.641Z,64.30
2022-08-14T21:42:11.056Z,64.10
2022-08-14T21:44:43.824Z,64.20
2022-08-14T21:47:13.274Z,64.00
2022-08-14T21:49:46.288Z,64.10
2022-08-14T21:52:51.141Z,64.20
2022-08-14T21:55:10.166Z,64.30
2022-08-14T21:57:56.306Z,64.00
2022-08-14T22:00:36.504Z,64.00
2022-08-14T22:03:09.859Z,63.80
2022-08-14T22:05:38.792Z,64.30
2022-08-14T22:08:07.483Z,64.50
2022-08-14T22:10:46.301Z,64.50
2022-08-14T22:13:16.718Z,64.50
2022-08-14T22:15:49.568Z,64.50
2022-08-14T22:18:20.583Z,64.60
2022-08-14T22:20:53.403Z,64.70
2022-08-14T22:23:26.249Z,64.60
2022-08-14T22:25:55.299Z,64.70
2022-08-14T22:28:32.700Z,64.40
2022-08-14T22:31:01.995Z,64.30
2022-08-14T22:33:31.298Z,64.30
2022-08-14T22:36:00.478Z,64.80
2022-08-14T22:38:36.505Z,65.30
2022-08-14T22:41:27.562Z,65.20
2022-08-14T22:43:54.548Z,64.70
2022-08-14T22:46:21.676Z,64.80
2022-08-14T22:48:50.935Z,64.70
2022-08-14T22:51:21.081Z,64.90
2022-08-14T22:53:52.396Z,64.80
2022-08-14T22:56:29.055Z,64.60
2022-08-14T22:59:01.475Z,64.70
2022-08-14T23:01:56.140Z,64.70
2022-08-14T23:04:35.392Z,64.70
2022-08-14T23:07:21.688Z,64.60
2022-08-14T23:09:56.740Z,64.30
2022-08-14T23:12:37.083Z,64.50
2022-08-14T23:15:05.318Z,64.40
2022-08-14T23:17:39.279Z,64.80
2022-08-14T23:20:18.863Z,64.80
2022-08-14T23:22:47.762Z,64.90
2022-08-14T23:25:19.937Z,64.70
2022-08-14T23:28:07.036Z,64.90
2022-08-14T23:30:55.373Z,65.10
2022-08-14T23:33:22.330Z,65.00
2022-08-14T23:35:59.725Z,65.00
2022-08-14T23:38:30.725Z,64.90
2022-08-14T23:41:02.505Z,64.80
2022-08-14T23:43:31.663Z,64.90
2022-08-14T23:45:59.163Z,65.10
2022-08-14T23:48:28.569Z,65.20
2022-08-14T23:50:56.308Z,65.00
2022-08-14T23:53:47.315Z,65.10
2022-08-14T23:56:31.906Z,65.10
2022-08-14T23:59:02.114Z,65.40
